sensor_id;sensor_type;location;lat;lon;timestamp;P1;durP1;ratioP1;P2;durP2;ratioP2
80297;SDS011;69599;52.622;9.230;2023-10-31T00:01:22;4.93;;;3.35;;
80297;SDS011;69599;52.622;9.230;2023-10-31T00:03:47;6.70;;;4.45;;
80297;SDS011;69599;52.622;9.230;2023-10-31T00:06:13;5.57;;;3.70;;
80297;SDS011;69599;52.622;9.230;2023-10-31T00:08:38;5.78;;;3.72;;
80297;SDS011;69599;52.622;9.230;2023-10-31T00:11:04;5.43;;;3.17;;
80297;SDS011;69599;52.622;9.230;2023-10-31T00:13:29;5.85;;;3.63;;
80297;SDS011;69599;52.622;9.230;2023-10-31T00:15:55;5.80;;;3.58;;
80297;SDS011;69599;52.622;9.230;2023-10-31T00:18:20;5.32;;;3.80;;
80297;SDS011;69599;52.622;9.230;2023-10-31T00:20:46;4.85;;;3.55;;
80297;SDS011;69599;52.622;9.230;2023-10-31T00:23:11;6.90;;;3.90;;
80297;SDS011;69599;52.622;9.230;2023-10-31T00:25:37;8.55;;;4.00;;
80297;SDS011;69599;52.622;9.230;2023-10-31T00:28:03;9.27;;;4.10;;
80297;SDS011;69599;52.622;9.230;2023-10-31T00:30:28;6.50;;;4.28;;
80297;SDS011;69599;52.622;9.230;2023-10-31T00:32:54;8.02;;;4.32;;
80297;SDS011;69599;52.622;9.230;2023-10-31T00:35:19;9.38;;;3.70;;
80297;SDS011;69599;52.622;9.230;2023-10-31T00:37:44;6.00;;;3.88;;
80297;SDS011;69599;52.622;9.230;2023-10-31T00:40:10;5.82;;;3.90;;
80297;SDS011;69599;52.622;9.230;2023-10-31T00:42:39;6.82;;;4.45;;
80297;SDS011;69599;52.622;9.230;2023-10-31T00:45:06;4.97;;;3.13;;
80297;SDS011;69599;52.622;9.230;2023-10-31T00:47:32;6.78;;;4.35;;
80297;SDS011;69599;52.622;9.230;2023-10-31T00:49:58;6.90;;;4.00;;
80297;SDS011;69599;52.622;9.230;2023-10-31T00:52:23;8.13;;;5.05;;
80297;SDS011;69599;52.622;9.230;2023-10-31T00:54:48;7.20;;;4.00;;
80297;SDS011;69599;52.622;9.230;2023-10-31T00:57:14;6.38;;;4.18;;
80297;SDS011;69599;52.622;9.230;2023-10-31T00:59:39;7.32;;;4.22;;
80297;SDS011;69599;52.622;9.230;2023-10-31T01:02:05;9.02;;;3.65;;
80297;SDS011;69599;52.622;9.230;2023-10-31T01:04:30;5.47;;;3.58;;
80297;SDS011;69599;52.622;9.230;2023-10-31T01:06:56;8.45;;;4.00;;
80297;SDS011;69599;52.622;9.230;2023-10-31T01:09:21;6.85;;;3.67;;
80297;SDS011;69599;52.622;9.230;2023-10-31T01:11:47;7.13;;;4.07;;
80297;SDS011;69599;52.622;9.230;2023-10-31T01:14:12;6.80;;;3.50;;
80297;SDS011;69599;52.622;9.230;2023-10-31T01:16:39;6.22;;;3.80;;
80297;SDS011;69599;52.622;9.230;2023-10-31T01:19:05;5.80;;;3.90;;
80297;SDS011;69599;52.622;9.230;2023-10-31T01:21:30;6.32;;;3.28;;
80297;SDS011;69599;52.622;9.230;2023-10-31T01:23:56;5.53;;;3.80;;
80297;SDS011;69599;52.622;9.230;2023-10-31T01:26:21;6.07;;;3.80;;
80297;SDS011;69599;52.622;9.230;2023-10-31T01:28:47;6.50;;;3.78;;
80297;SDS011;69599;52.622;9.230;2023-10-31T01:31:12;4.93;;;3.33;;
80297;SDS011;69599;52.622;9.230;2023-10-31T01:33:37;6.75;;;3.78;;
80297;SDS011;69599;52.622;9.230;2023-10-31T01:36:03;5.88;;;3.50;;
80297;SDS011;69599;52.622;9.230;2023-10-31T01:38:29;5.75;;;3.08;;
80297;SDS011;69599;52.622;9.230;2023-10-31T01:40:54;5.35;;;3.60;;
80297;SDS011;69599;52.622;9.230;2023-10-31T01:43:35;6.95;;;3.72;;
80297;SDS011;69599;52.622;9.230;2023-10-31T01:46:02;5.10;;;3.50;;
80297;SDS011;69599;52.622;9.230;2023-10-31T01:48:29;6.00;;;3.75;;
80297;SDS011;69599;52.622;9.230;2023-10-31T01:50:56;5.07;;;3.38;;
80297;SDS011;69599;52.622;9.230;2023-10-31T01:53:22;5.43;;;3.30;;
80297;SDS011;69599;52.622;9.230;2023-10-31T01:55:49;7.63;;;3.13;;
80297;SDS011;69599;52.622;9.230;2023-10-31T01:58:15;4.90;;;3.55;;
80297;SDS011;69599;52.622;9.230;2023-10-31T02:00:41;5.53;;;3.38;;
80297;SDS011;69599;52.622;9.230;2023-10-31T02:03:07;5.13;;;3.40;;
80297;SDS011;69599;52.622;9.230;2023-10-31T02:05:33;6.03;;;3.35;;
80297;SDS011;69599;52.622;9.230;2023-10-31T02:08:00;5.72;;;3.22;;
80297;SDS011;69599;52.622;9.230;2023-10-31T02:10:26;5.50;;;3.85;;
80297;SDS011;69599;52.622;9.230;2023-10-31T02:12:51;6.57;;;3.33;;
80297;SDS011;69599;52.622;9.230;2023-10-31T02:15:16;5.40;;;3.40;;
80297;SDS011;69599;52.622;9.230;2023-10-31T02:17:42;6.15;;;3.53;;
80297;SDS011;69599;52.622;9.230;2023-10-31T02:20:07;5.47;;;3.63;;
80297;SDS011;69599;52.622;9.230;2023-10-31T02:22:33;5.38;;;3.35;;
80297;SDS011;69599;52.622;9.230;2023-10-31T02:24:59;6.57;;;3.45;;
80297;SDS011;69599;52.622;9.230;2023-10-31T02:27:24;4.75;;;3.60;;
80297;SDS011;69599;52.622;9.230;2023-10-31T02:29:50;5.25;;;3.55;;
80297;SDS011;69599;52.622;9.230;2023-10-31T02:32:15;5.75;;;3.70;;
80297;SDS011;69599;52.622;9.230;2023-10-31T02:34:41;6.80;;;3.70;;
80297;SDS011;69599;52.622;9.230;2023-10-31T02:37:06;7.55;;;4.32;;
80297;SDS011;69599;52.622;9.230;2023-10-31T02:39:32;7.68;;;3.60;;
80297;SDS011;69599;52.622;9.230;2023-10-31T02:41:57;4.57;;;2.92;;
80297;SDS011;69599;52.622;9.230;2023-10-31T02:44:23;6.30;;;3.25;;
80297;SDS011;69599;52.622;9.230;2023-10-31T02:46:48;6.32;;;3.25;;
80297;SDS011;69599;52.622;9.230;2023-10-31T02:49:14;5.18;;;3.03;;
80297;SDS011;69599;52.622;9.230;2023-10-31T02:51:39;5.95;;;3.15;;
80297;SDS011;69599;52.622;9.230;2023-10-31T02:54:05;5.75;;;3.50;;
80297;SDS011;69599;52.622;9.230;2023-10-31T02:56:30;4.15;;;3.10;;
80297;SDS011;69599;52.622;9.230;2023-10-31T02:58:56;4.50;;;3.10;;
80297;SDS011;69599;52.622;9.230;2023-10-31T03:01:21;5.13;;;3.15;;
80297;SDS011;69599;52.622;9.230;2023-10-31T03:03:47;5.03;;;3.60;;
80297;SDS011;69599;52.622;9.230;2023-10-31T03:06:12;6.28;;;3.25;;
80297;SDS011;69599;52.622;9.230;2023-10-31T03:08:37;4.72;;;3.55;;
80297;SDS011;69599;52.622;9.230;2023-10-31T03:11:03;7.53;;;3.78;;
80297;SDS011;69599;52.622;9.230;2023-10-31T03:13:28;7.38;;;3.67;;
80297;SDS011;69599;52.622;9.230;2023-10-31T03:15:54;5.38;;;3.90;;
80297;SDS011;69599;52.622;9.230;2023-10-31T03:18:19;10.23;;;4.28;;
80297;SDS011;69599;52.622;9.230;2023-10-31T03:20:44;6.85;;;3.67;;
80297;SDS011;69599;52.622;9.230;2023-10-31T03:23:13;8.05;;;4.22;;
80297;SDS011;69599;52.622;9.230;2023-10-31T03:25:38;5.97;;;4.10;;
80297;SDS011;69599;52.622;9.230;2023-10-31T03:28:07;7.07;;;3.65;;
80297;SDS011;69599;52.622;9.230;2023-10-31T03:30:43;7.03;;;3.63;;
80297;SDS011;69599;52.622;9.230;2023-10-31T03:33:08;7.68;;;3.85;;
80297;SDS011;69599;52.622;9.230;2023-10-31T03:35:34;5.50;;;4.13;;
80297;SDS011;69599;52.622;9.230;2023-10-31T03:37:59;5.72;;;3.97;;
80297;SDS011;69599;52.622;9.230;2023-10-31T03:40:24;4.88;;;3.55;;
80297;SDS011;69599;52.622;9.230;2023-10-31T03:42:50;6.43;;;4.07;;
80297;SDS011;69599;52.622;9.230;2023-10-31T03:45:15;8.15;;;4.93;;
80297;SDS011;69599;52.622;9.230;2023-10-31T03:47:41;7.60;;;4.88;;
80297;SDS011;69599;52.622;9.230;2023-10-31T03:50:07;10.75;;;6.18;;
80297;SDS011;69599;52.622;9.230;2023-10-31T03:52:33;8.98;;;6.68;;
80297;SDS011;69599;52.622;9.230;2023-10-31T03:54:59;9.65;;;6.88;;
80297;SDS011;69599;52.622;9.230;2023-10-31T03:57:24;10.00;;;7.25;;
80297;SDS011;69599;52.622;9.230;2023-10-31T03:59:49;11.45;;;8.68;;
80297;SDS011;69599;52.622;9.230;2023-10-31T04:02:15;12.70;;;7.97;;
80297;SDS011;69599;52.622;9.230;2023-10-31T04:04:40;14.77;;;9.25;;
80297;SDS011;69599;52.622;9.230;2023-10-31T04:07:06;13.93;;;8.38;;
80297;SDS011;69599;52.622;9.230;2023-10-31T04:09:32;11.30;;;7.63;;
80297;SDS011;69599;52.622;9.230;2023-10-31T04:11:57;11.00;;;7.38;;
80297;SDS011;69599;52.622;9.230;2023-10-31T04:14:22;7.75;;;5.65;;
80297;SDS011;69599;52.622;9.230;2023-10-31T04:16:48;10.13;;;6.47;;
80297;SDS011;69599;52.622;9.230;2023-10-31T04:19:13;9.43;;;5.85;;
80297;SDS011;69599;52.622;9.230;2023-10-31T04:21:39;6.65;;;4.38;;
80297;SDS011;69599;52.622;9.230;2023-10-31T04:24:04;6.25;;;3.92;;
80297;SDS011;69599;52.622;9.230;2023-10-31T04:26:30;5.68;;;3.58;;
80297;SDS011;69599;52.622;9.230;2023-10-31T04:28:55;6.35;;;3.50;;
80297;SDS011;69599;52.622;9.230;2023-10-31T04:31:21;5.07;;;2.97;;
80297;SDS011;69599;52.622;9.230;2023-10-31T04:33:46;4.93;;;2.78;;
80297;SDS011;69599;52.622;9.230;2023-10-31T04:36:11;4.07;;;2.42;;
80297;SDS011;69599;52.622;9.230;2023-10-31T04:38:37;2.95;;;1.90;;
80297;SDS011;69599;52.622;9.230;2023-10-31T04:41:03;2.72;;;1.45;;
80297;SDS011;69599;52.622;9.230;2023-10-31T04:43:29;3.03;;;1.67;;
80297;SDS011;69599;52.622;9.230;2023-10-31T04:45:54;2.97;;;1.73;;
80297;SDS011;69599;52.622;9.230;2023-10-31T04:48:19;1.30;;;0.90;;
80297;SDS011;69599;52.622;9.230;2023-10-31T04:50:45;1.52;;;0.82;;
80297;SDS011;69599;52.622;9.230;2023-10-31T04:53:10;1.92;;;0.88;;
80297;SDS011;69599;52.622;9.230;2023-10-31T04:55:36;0.88;;;0.60;;
80297;SDS011;69599;52.622;9.230;2023-10-31T04:58:01;1.35;;;0.60;;
80297;SDS011;69599;52.622;9.230;2023-10-31T05:00:26;1.45;;;0.25;;
80297;SDS011;69599;52.622;9.230;2023-10-31T05:02:52;0.52;;;0.30;;
80297;SDS011;69599;52.622;9.230;2023-10-31T05:05:17;0.20;;;0.20;;
80297;SDS011;69599;52.622;9.230;2023-10-31T05:07:43;0.28;;;0.15;;
80297;SDS011;69599;52.622;9.230;2023-10-31T05:10:08;0.38;;;0.25;;
80297;SDS011;69599;52.622;9.230;2023-10-31T05:12:34;0.20;;;0.13;;
80297;SDS011;69599;52.622;9.230;2023-10-31T05:14:59;1.30;;;0.28;;
80297;SDS011;69599;52.622;9.230;2023-10-31T05:17:24;0.43;;;0.10;;
80297;SDS011;69599;52.622;9.230;2023-10-31T05:19:50;0.68;;;0.30;;
80297;SDS011;69599;52.622;9.230;2023-10-31T05:22:16;0.30;;;0.20;;
80297;SDS011;69599;52.622;9.230;2023-10-31T05:24:41;1.55;;;0.20;;
80297;SDS011;69599;52.622;9.230;2023-10-31T05:27:06;0.43;;;0.10;;
80297;SDS011;69599;52.622;9.230;2023-10-31T05:29:33;1.08;;;0.30;;
80297;SDS011;69599;52.622;9.230;2023-10-31T05:31:58;0.45;;;0.30;;
80297;SDS011;69599;52.622;9.230;2023-10-31T05:34:25;0.10;;;0.10;;
80297;SDS011;69599;52.622;9.230;2023-10-31T05:36:50;0.45;;;0.22;;
80297;SDS011;69599;52.622;9.230;2023-10-31T05:39:16;0.10;;;0.10;;
80297;SDS011;69599;52.622;9.230;2023-10-31T05:41:41;0.17;;;0.17;;
80297;SDS011;69599;52.622;9.230;2023-10-31T05:44:06;0.20;;;0.10;;
80297;SDS011;69599;52.622;9.230;2023-10-31T05:46:32;0.47;;;0.10;;
80297;SDS011;69599;52.622;9.230;2023-10-31T05:49:04;0.00;;;0.00;;
80297;SDS011;69599;52.622;9.230;2023-10-31T05:51:31;1.83;;;0.20;;
80297;SDS011;69599;52.622;9.230;2023-10-31T05:53:57;0.93;;;0.20;;
80297;SDS011;69599;52.622;9.230;2023-10-31T05:56:23;0.25;;;0.10;;
80297;SDS011;69599;52.622;9.230;2023-10-31T05:58:48;0.52;;;0.28;;
80297;SDS011;69599;52.622;9.230;2023-10-31T06:01:14;3.63;;;0.30;;
80297;SDS011;69599;52.622;9.230;2023-10-31T06:03:42;3.28;;;0.40;;
80297;SDS011;69599;52.622;9.230;2023-10-31T06:06:09;0.35;;;0.20;;
80297;SDS011;69599;52.622;9.230;2023-10-31T06:08:34;0.65;;;0.40;;
80297;SDS011;69599;52.622;9.230;2023-10-31T06:11:00;1.25;;;0.22;;
80297;SDS011;69599;52.622;9.230;2023-10-31T06:13:25;0.40;;;0.30;;
80297;SDS011;69599;52.622;9.230;2023-10-31T06:15:52;0.85;;;0.22;;
80297;SDS011;69599;52.622;9.230;2023-10-31T06:18:19;1.85;;;0.80;;
80297;SDS011;69599;52.622;9.230;2023-10-31T06:20:44;1.10;;;0.50;;
80297;SDS011;69599;52.622;9.230;2023-10-31T06:23:09;1.33;;;0.70;;
80297;SDS011;69599;52.622;9.230;2023-10-31T06:25:35;1.15;;;0.70;;
80297;SDS011;69599;52.622;9.230;2023-10-31T06:28:00;0.90;;;0.57;;
80297;SDS011;69599;52.622;9.230;2023-10-31T06:30:26;1.23;;;0.63;;
80297;SDS011;69599;52.622;9.230;2023-10-31T06:32:52;2.80;;;0.80;;
80297;SDS011;69599;52.622;9.230;2023-10-31T06:35:18;2.15;;;0.70;;
80297;SDS011;69599;52.622;9.230;2023-10-31T06:37:43;2.97;;;0.90;;
80297;SDS011;69599;52.622;9.230;2023-10-31T06:40:09;1.95;;;1.08;;
80297;SDS011;69599;52.622;9.230;2023-10-31T06:42:35;1.63;;;0.82;;
80297;SDS011;69599;52.622;9.230;2023-10-31T06:45:01;2.15;;;0.73;;
80297;SDS011;69599;52.622;9.230;2023-10-31T06:47:26;1.98;;;1.00;;
80297;SDS011;69599;52.622;9.230;2023-10-31T06:49:52;3.70;;;0.90;;
80297;SDS011;69599;52.622;9.230;2023-10-31T06:52:17;1.98;;;1.02;;
80297;SDS011;69599;52.622;9.230;2023-10-31T06:54:42;4.53;;;1.85;;
80297;SDS011;69599;52.622;9.230;2023-10-31T06:57:08;2.63;;;1.10;;
80297;SDS011;69599;52.622;9.230;2023-10-31T06:59:34;2.65;;;1.00;;
80297;SDS011;69599;52.622;9.230;2023-10-31T07:01:59;4.75;;;2.05;;
80297;SDS011;69599;52.622;9.230;2023-10-31T07:04:25;2.92;;;1.42;;
80297;SDS011;69599;52.622;9.230;2023-10-31T07:06:50;2.22;;;1.30;;
80297;SDS011;69599;52.622;9.230;2023-10-31T07:09:22;3.05;;;1.70;;
80297;SDS011;69599;52.622;9.230;2023-10-31T07:11:51;4.80;;;2.28;;
80297;SDS011;69599;52.622;9.230;2023-10-31T07:14:16;3.63;;;1.90;;
80297;SDS011;69599;52.622;9.230;2023-10-31T07:16:42;4.07;;;2.00;;
80297;SDS011;69599;52.622;9.230;2023-10-31T07:19:09;4.00;;;1.80;;
80297;SDS011;69599;52.622;9.230;2023-10-31T07:21:35;5.00;;;2.20;;
80297;SDS011;69599;52.622;9.230;2023-10-31T07:24:00;3.55;;;2.10;;
80297;SDS011;69599;52.622;9.230;2023-10-31T07:26:26;4.97;;;2.38;;
80297;SDS011;69599;52.622;9.230;2023-10-31T07:28:52;3.78;;;2.10;;
80297;SDS011;69599;52.622;9.230;2023-10-31T07:31:18;5.80;;;2.80;;
80297;SDS011;69599;52.622;9.230;2023-10-31T07:33:46;4.03;;;2.20;;
80297;SDS011;69599;52.622;9.230;2023-10-31T07:36:11;5.30;;;2.40;;
80297;SDS011;69599;52.622;9.230;2023-10-31T07:38:37;3.08;;;1.98;;
80297;SDS011;69599;52.622;9.230;2023-10-31T07:41:03;7.28;;;2.50;;
80297;SDS011;69599;52.622;9.230;2023-10-31T07:43:28;3.15;;;2.08;;
80297;SDS011;69599;52.622;9.230;2023-10-31T07:45:54;4.50;;;2.08;;
80297;SDS011;69599;52.622;9.230;2023-10-31T07:48:19;4.85;;;2.20;;
80297;SDS011;69599;52.622;9.230;2023-10-31T07:50:45;3.40;;;2.20;;
80297;SDS011;69599;52.622;9.230;2023-10-31T07:53:10;3.95;;;1.90;;
80297;SDS011;69599;52.622;9.230;2023-10-31T07:55:36;3.08;;;2.38;;
80297;SDS011;69599;52.622;9.230;2023-10-31T07:58:01;9.77;;;2.33;;
80297;SDS011;69599;52.622;9.230;2023-10-31T08:00:26;4.47;;;2.35;;
80297;SDS011;69599;52.622;9.230;2023-10-31T08:02:52;4.13;;;2.20;;
80297;SDS011;69599;52.622;9.230;2023-10-31T08:05:17;3.75;;;2.55;;
80297;SDS011;69599;52.622;9.230;2023-10-31T08:07:43;4.22;;;2.15;;
80297;SDS011;69599;52.622;9.230;2023-10-31T08:10:09;3.65;;;2.25;;
80297;SDS011;69599;52.622;9.230;2023-10-31T08:12:34;5.25;;;2.00;;
80297;SDS011;69599;52.622;9.230;2023-10-31T08:15:00;2.53;;;1.80;;
80297;SDS011;69599;52.622;9.230;2023-10-31T08:17:26;2.95;;;1.83;;
80297;SDS011;69599;52.622;9.230;2023-10-31T08:19:51;3.00;;;1.85;;
80297;SDS011;69599;52.622;9.230;2023-10-31T08:22:17;2.83;;;1.85;;
80297;SDS011;69599;52.622;9.230;2023-10-31T08:24:42;2.50;;;1.73;;
80297;SDS011;69599;52.622;9.230;2023-10-31T08:27:08;3.72;;;1.88;;
80297;SDS011;69599;52.622;9.230;2023-10-31T08:29:33;4.07;;;2.25;;
80297;SDS011;69599;52.622;9.230;2023-10-31T08:31:59;3.15;;;2.05;;
80297;SDS011;69599;52.622;9.230;2023-10-31T08:34:24;2.95;;;2.00;;
80297;SDS011;69599;52.622;9.230;2023-10-31T08:36:50;3.58;;;2.20;;
80297;SDS011;69599;52.622;9.230;2023-10-31T08:39:17;4.07;;;2.45;;
80297;SDS011;69599;52.622;9.230;2023-10-31T08:41:55;3.92;;;2.10;;
80297;SDS011;69599;52.622;9.230;2023-10-31T08:44:22;3.85;;;2.33;;
80297;SDS011;69599;52.622;9.230;2023-10-31T08:46:47;3.08;;;2.30;;
80297;SDS011;69599;52.622;9.230;2023-10-31T08:49:14;4.00;;;2.42;;
80297;SDS011;69599;52.622;9.230;2023-10-31T08:51:39;3.92;;;2.50;;
80297;SDS011;69599;52.622;9.230;2023-10-31T08:54:05;5.28;;;3.38;;
80297;SDS011;69599;52.622;9.230;2023-10-31T08:56:31;5.32;;;2.75;;
80297;SDS011;69599;52.622;9.230;2023-10-31T08:58:56;4.18;;;2.72;;
80297;SDS011;69599;52.622;9.230;2023-10-31T09:01:22;3.75;;;2.30;;
80297;SDS011;69599;52.622;9.230;2023-10-31T09:03:47;4.47;;;2.47;;
80297;SDS011;69599;52.622;9.230;2023-10-31T09:06:13;5.45;;;3.15;;
80297;SDS011;69599;52.622;9.230;2023-10-31T09:08:39;6.72;;;3.30;;
80297;SDS011;69599;52.622;9.230;2023-10-31T09:11:04;4.22;;;3.05;;
80297;SDS011;69599;52.622;9.230;2023-10-31T09:13:30;4.53;;;3.30;;
80297;SDS011;69599;52.622;9.230;2023-10-31T09:15:57;4.20;;;2.85;;
80297;SDS011;69599;52.622;9.230;2023-10-31T09:18:23;4.32;;;3.17;;
80297;SDS011;69599;52.622;9.230;2023-10-31T09:20:49;5.43;;;2.85;;
80297;SDS011;69599;52.622;9.230;2023-10-31T09:23:15;4.80;;;3.10;;
80297;SDS011;69599;52.622;9.230;2023-10-31T09:25:42;4.60;;;2.88;;
80297;SDS011;69599;52.622;9.230;2023-10-31T09:28:07;6.38;;;3.17;;
80297;SDS011;69599;52.622;9.230;2023-10-31T09:30:33;4.00;;;2.55;;
80297;SDS011;69599;52.622;9.230;2023-10-31T09:32:58;3.90;;;2.72;;
80297;SDS011;69599;52.622;9.230;2023-10-31T09:35:24;3.78;;;2.10;;
80297;SDS011;69599;52.622;9.230;2023-10-31T09:37:50;4.20;;;2.20;;
80297;SDS011;69599;52.622;9.230;2023-10-31T09:40:16;2.70;;;1.60;;
80297;SDS011;69599;52.622;9.230;2023-10-31T09:42:42;4.63;;;2.92;;
80297;SDS011;69599;52.622;9.230;2023-10-31T09:45:08;2.63;;;1.90;;
80297;SDS011;69599;52.622;9.230;2023-10-31T09:47:33;2.28;;;1.60;;
80297;SDS011;69599;52.622;9.230;2023-10-31T09:49:59;2.72;;;1.50;;
80297;SDS011;69599;52.622;9.230;2023-10-31T09:52:24;4.50;;;1.60;;
80297;SDS011;69599;52.622;9.230;2023-10-31T09:54:50;5.20;;;1.60;;
80297;SDS011;69599;52.622;9.230;2023-10-31T09:57:17;2.72;;;1.30;;
80297;SDS011;69599;52.622;9.230;2023-10-31T09:59:43;1.90;;;1.20;;
80297;SDS011;69599;52.622;9.230;2023-10-31T10:02:08;3.75;;;1.45;;
80297;SDS011;69599;52.622;9.230;2023-10-31T10:04:34;3.03;;;1.42;;
80297;SDS011;69599;52.622;9.230;2023-10-31T10:07:02;1.98;;;1.35;;
80297;SDS011;69599;52.622;9.230;2023-10-31T10:09:28;2.45;;;1.20;;
80297;SDS011;69599;52.622;9.230;2023-10-31T10:11:54;2.92;;;1.42;;
80297;SDS011;69599;52.622;9.230;2023-10-31T10:14:22;4.47;;;1.42;;
80297;SDS011;69599;52.622;9.230;2023-10-31T10:16:48;1.85;;;1.08;;
80297;SDS011;69599;52.622;9.230;2023-10-31T10:19:14;2.30;;;1.20;;
80297;SDS011;69599;52.622;9.230;2023-10-31T10:24:21;3.63;;;1.20;;
80297;SDS011;69599;52.622;9.230;2023-10-31T10:26:47;4.05;;;1.45;;
80297;SDS011;69599;52.622;9.230;2023-10-31T10:29:13;2.70;;;1.50;;
80297;SDS011;69599;52.622;9.230;2023-10-31T10:31:39;3.08;;;1.30;;
80297;SDS011;69599;52.622;9.230;2023-10-31T10:34:05;2.13;;;1.40;;
80297;SDS011;69599;52.622;9.230;2023-10-31T10:36:32;3.05;;;1.30;;
80297;SDS011;69599;52.622;9.230;2023-10-31T10:38:58;3.30;;;1.38;;
80297;SDS011;69599;52.622;9.230;2023-10-31T10:41:27;2.42;;;1.42;;
80297;SDS011;69599;52.622;9.230;2023-10-31T10:46:26;3.17;;;1.30;;
80297;SDS011;69599;52.622;9.230;2023-10-31T10:48:54;2.55;;;1.60;;
80297;SDS011;69599;52.622;9.230;2023-10-31T10:51:35;3.70;;;2.50;;
80297;SDS011;69599;52.622;9.230;2023-10-31T10:54:05;3.00;;;1.90;;
80297;SDS011;69599;52.622;9.230;2023-10-31T10:56:38;3.13;;;1.50;;
80297;SDS011;69599;52.622;9.230;2023-10-31T10:59:09;3.22;;;1.60;;
80297;SDS011;69599;52.622;9.230;2023-10-31T11:01:41;3.65;;;1.90;;
80297;SDS011;69599;52.622;9.230;2023-10-31T11:04:06;3.13;;;2.03;;
80297;SDS011;69599;52.622;9.230;2023-10-31T11:06:32;2.13;;;1.30;;
80297;SDS011;69599;52.622;9.230;2023-10-31T11:09:00;2.35;;;1.40;;
80297;SDS011;69599;52.622;9.230;2023-10-31T11:11:25;2.47;;;1.20;;
80297;SDS011;69599;52.622;9.230;2023-10-31T11:13:51;2.38;;;1.63;;
80297;SDS011;69599;52.622;9.230;2023-10-31T11:16:20;2.05;;;0.90;;
80297;SDS011;69599;52.622;9.230;2023-10-31T11:18:51;1.98;;;1.10;;
80297;SDS011;69599;52.622;9.230;2023-10-31T11:21:16;2.50;;;1.27;;
80297;SDS011;69599;52.622;9.230;2023-10-31T11:23:42;3.70;;;1.20;;
80297;SDS011;69599;52.622;9.230;2023-10-31T11:26:07;1.98;;;1.10;;
80297;SDS011;69599;52.622;9.230;2023-10-31T11:28:33;2.60;;;1.30;;
80297;SDS011;69599;52.622;9.230;2023-10-31T11:30:58;1.55;;;0.98;;
80297;SDS011;69599;52.622;9.230;2023-10-31T11:33:26;2.00;;;1.10;;
80297;SDS011;69599;52.622;9.230;2023-10-31T11:35:59;1.92;;;1.35;;
80297;SDS011;69599;52.622;9.230;2023-10-31T11:38:35;3.33;;;2.15;;
80297;SDS011;69599;52.622;9.230;2023-10-31T11:41:02;3.63;;;1.45;;
80297;SDS011;69599;52.622;9.230;2023-10-31T11:43:35;3.67;;;1.42;;
80297;SDS011;69599;52.622;9.230;2023-10-31T11:46:02;2.35;;;0.90;;
80297;SDS011;69599;52.622;9.230;2023-10-31T11:48:50;2.10;;;0.90;;
80297;SDS011;69599;52.622;9.230;2023-10-31T11:51:16;2.28;;;1.20;;
80297;SDS011;69599;52.622;9.230;2023-10-31T11:53:42;1.95;;;1.35;;
80297;SDS011;69599;52.622;9.230;2023-10-31T11:56:12;2.25;;;1.08;;
80297;SDS011;69599;52.622;9.230;2023-10-31T11:58:37;3.72;;;0.80;;
80297;SDS011;69599;52.622;9.230;2023-10-31T12:01:07;2.30;;;0.95;;
80297;SDS011;69599;52.622;9.230;2023-10-31T12:03:40;2.17;;;0.77;;
80297;SDS011;69599;52.622;9.230;2023-10-31T12:06:07;1.80;;;0.98;;
80297;SDS011;69599;52.622;9.230;2023-10-31T12:08:34;3.15;;;0.80;;
80297;SDS011;69599;52.622;9.230;2023-10-31T12:11:21;2.13;;;1.10;;
80297;SDS011;69599;52.622;9.230;2023-10-31T12:14:05;4.43;;;1.58;;
80297;SDS011;69599;52.622;9.230;2023-10-31T12:16:31;3.80;;;1.90;;
80297;SDS011;69599;52.622;9.230;2023-10-31T12:18:58;2.90;;;1.20;;
80297;SDS011;69599;52.622;9.230;2023-10-31T12:24:21;1.60;;;1.10;;
80297;SDS011;69599;52.622;9.230;2023-10-31T12:26:46;1.92;;;1.02;;
80297;SDS011;69599;52.622;9.230;2023-10-31T12:29:16;2.00;;;1.08;;
80297;SDS011;69599;52.622;9.230;2023-10-31T12:31:49;1.15;;;0.88;;
80297;SDS011;69599;52.622;9.230;2023-10-31T12:34:17;1.33;;;1.05;;
80297;SDS011;69599;52.622;9.230;2023-10-31T12:36:45;2.08;;;0.80;;
80297;SDS011;69599;52.622;9.230;2023-10-31T12:39:11;1.00;;;0.80;;
80297;SDS011;69599;52.622;9.230;2023-10-31T12:41:38;1.15;;;0.70;;
80297;SDS011;69599;52.622;9.230;2023-10-31T12:44:04;1.27;;;0.60;;
80297;SDS011;69599;52.622;9.230;2023-10-31T12:46:31;2.78;;;0.90;;
80297;SDS011;69599;52.622;9.230;2023-10-31T12:48:57;1.58;;;0.70;;
80297;SDS011;69599;52.622;9.230;2023-10-31T12:51:23;1.77;;;0.95;;
80297;SDS011;69599;52.622;9.230;2023-10-31T12:53:49;1.63;;;0.70;;
80297;SDS011;69599;52.622;9.230;2023-10-31T12:58:59;1.48;;;0.80;;
80297;SDS011;69599;52.622;9.230;2023-10-31T13:01:25;1.38;;;1.00;;
80297;SDS011;69599;52.622;9.230;2023-10-31T13:03:51;3.85;;;1.20;;
80297;SDS011;69599;52.622;9.230;2023-10-31T13:06:16;0.98;;;0.60;;
80297;SDS011;69599;52.622;9.230;2023-10-31T13:08:44;1.70;;;0.95;;
80297;SDS011;69599;52.622;9.230;2023-10-31T13:11:11;2.50;;;0.70;;
80297;SDS011;69599;52.622;9.230;2023-10-31T13:13:36;1.98;;;0.90;;
80297;SDS011;69599;52.622;9.230;2023-10-31T13:16:02;1.50;;;0.57;;
80297;SDS011;69599;52.622;9.230;2023-10-31T13:18:28;2.03;;;0.63;;
80297;SDS011;69599;52.622;9.230;2023-10-31T13:20:53;1.63;;;0.43;;
80297;SDS011;69599;52.622;9.230;2023-10-31T13:23:18;2.28;;;0.82;;
80297;SDS011;69599;52.622;9.230;2023-10-31T13:25:44;1.80;;;0.50;;
80297;SDS011;69599;52.622;9.230;2023-10-31T13:28:10;1.13;;;0.60;;
80297;SDS011;69599;52.622;9.230;2023-10-31T13:30:37;2.20;;;0.60;;
80297;SDS011;69599;52.622;9.230;2023-10-31T13:33:02;1.58;;;0.45;;
80297;SDS011;69599;52.622;9.230;2023-10-31T13:35:28;1.45;;;0.50;;
80297;SDS011;69599;52.622;9.230;2023-10-31T13:37:53;1.17;;;0.70;;
80297;SDS011;69599;52.622;9.230;2023-10-31T13:40:19;2.42;;;0.82;;
80297;SDS011;69599;52.622;9.230;2023-10-31T13:42:44;2.35;;;0.50;;
80297;SDS011;69599;52.622;9.230;2023-10-31T13:45:09;2.35;;;0.60;;
80297;SDS011;69599;52.622;9.230;2023-10-31T13:47:35;1.88;;;0.70;;
80297;SDS011;69599;52.622;9.230;2023-10-31T13:50:03;1.20;;;0.60;;
80297;SDS011;69599;52.622;9.230;2023-10-31T13:52:29;2.83;;;0.60;;
80297;SDS011;69599;52.622;9.230;2023-10-31T13:54:55;0.47;;;0.28;;
80297;SDS011;69599;52.622;9.230;2023-10-31T13:57:20;1.48;;;0.85;;
80297;SDS011;69599;52.622;9.230;2023-10-31T13:59:46;1.77;;;1.05;;
80297;SDS011;69599;52.622;9.230;2023-10-31T14:02:12;0.77;;;0.50;;
80297;SDS011;69599;52.622;9.230;2023-10-31T14:04:37;0.75;;;0.60;;
80297;SDS011;69599;52.622;9.230;2023-10-31T14:07:03;14.35;;;11.10;;
80297;SDS011;69599;52.622;9.230;2023-10-31T14:09:28;5.53;;;2.22;;
80297;SDS011;69599;52.622;9.230;2023-10-31T14:11:55;2.35;;;1.92;;
80297;SDS011;69599;52.622;9.230;2023-10-31T14:14:20;4.88;;;2.28;;
80297;SDS011;69599;52.622;9.230;2023-10-31T14:16:46;2.88;;;1.23;;
80297;SDS011;69599;52.622;9.230;2023-10-31T14:19:12;3.65;;;2.55;;
80297;SDS011;69599;52.622;9.230;2023-10-31T14:21:38;4.82;;;2.28;;
80297;SDS011;69599;52.622;9.230;2023-10-31T14:24:04;2.17;;;1.15;;
80297;SDS011;69599;52.622;9.230;2023-10-31T14:26:30;4.72;;;2.72;;
80297;SDS011;69599;52.622;9.230;2023-10-31T14:28:58;5.25;;;3.50;;
80297;SDS011;69599;52.622;9.230;2023-10-31T14:31:23;4.30;;;2.40;;
80297;SDS011;69599;52.622;9.230;2023-10-31T14:33:48;27.13;;;12.88;;
80297;SDS011;69599;52.622;9.230;2023-10-31T14:36:14;20.33;;;7.90;;
80297;SDS011;69599;52.622;9.230;2023-10-31T14:38:40;13.65;;;8.93;;
80297;SDS011;69599;52.622;9.230;2023-10-31T14:41:05;12.27;;;6.88;;
80297;SDS011;69599;52.622;9.230;2023-10-31T14:43:32;13.90;;;9.85;;
80297;SDS011;69599;52.622;9.230;2023-10-31T14:45:58;2.80;;;1.60;;
80297;SDS011;69599;52.622;9.230;2023-10-31T14:48:24;2.55;;;1.08;;
80297;SDS011;69599;52.622;9.230;2023-10-31T14:50:50;1.98;;;1.75;;
80297;SDS011;69599;52.622;9.230;2023-10-31T14:53:15;4.70;;;1.17;;